sensor_id;sensor_type;location;lat;lon;timestamp;P1;durP1;ratioP1;P2;durP2;ratioP2
59922;SDS011;45778;51.142;3.732;2022-08-19T00:00:16;51.22;;;38.10;;
59922;SDS011;45778;51.142;3.732;2022-08-19T00:02:42;50.10;;;37.33;;
59922;SDS011;45778;51.142;3.732;2022-08-19T00:05:09;53.95;;;37.22;;
59922;SDS011;45778;51.142;3.732;2022-08-19T00:07:35;52.53;;;37.67;;
59922;SDS011;45778;51.142;3.732;2022-08-19T00:10:02;49.20;;;37.45;;
59922;SDS011;45778;51.142;3.732;2022-08-19T00:12:30;53.17;;;37.70;;
59922;SDS011;45778;51.142;3.732;2022-08-19T00:14:56;56.55;;;35.65;;
59922;SDS011;45778;51.142;3.732;2022-08-19T00:17:21;49.25;;;34.30;;
59922;SDS011;45778;51.142;3.732;2022-08-19T00:19:47;48.92;;;33.63;;
59922;SDS011;45778;51.142;3.732;2022-08-19T00:22:13;48.13;;;35.15;;
59922;SDS011;45778;51.142;3.732;2022-08-19T00:24:39;45.97;;;33.78;;
59922;SDS011;45778;51.142;3.732;2022-08-19T00:27:06;43.17;;;31.58;;
59922;SDS011;45778;51.142;3.732;2022-08-19T00:29:31;41.10;;;30.13;;
59922;SDS011;45778;51.142;3.732;2022-08-19T00:31:57;44.22;;;29.92;;
59922;SDS011;45778;51.142;3.732;2022-08-19T00:34:24;39.50;;;29.88;;
59922;SDS011;45778;51.142;3.732;2022-08-19T00:36:54;41.78;;;30.67;;
59922;SDS011;45778;51.142;3.732;2022-08-19T00:39:20;41.55;;;30.58;;
59922;SDS011;45778;51.142;3.732;2022-08-19T00:41:46;43.65;;;30.67;;
59922;SDS011;45778;51.142;3.732;2022-08-19T00:44:19;43.83;;;30.55;;
59922;SDS011;45778;51.142;3.732;2022-08-19T00:46:50;37.58;;;28.67;;
59922;SDS011;45778;51.142;3.732;2022-08-19T00:51:47;42.30;;;28.70;;
59922;SDS011;45778;51.142;3.732;2022-08-19T00:54:15;41.45;;;28.92;;
59922;SDS011;45778;51.142;3.732;2022-08-19T00:56:41;40.53;;;29.75;;
59922;SDS011;45778;51.142;3.732;2022-08-19T00:59:07;37.47;;;28.25;;
59922;SDS011;45778;51.142;3.732;2022-08-19T01:01:36;38.88;;;29.13;;
59922;SDS011;45778;51.142;3.732;2022-08-19T01:04:03;39.05;;;28.45;;
59922;SDS011;45778;51.142;3.732;2022-08-19T01:06:29;50.00;;;29.63;;
59922;SDS011;45778;51.142;3.732;2022-08-19T01:08:57;38.17;;;29.48;;
59922;SDS011;45778;51.142;3.732;2022-08-19T01:11:24;40.67;;;30.40;;
59922;SDS011;45778;51.142;3.732;2022-08-19T01:13:52;44.38;;;31.20;;
59922;SDS011;45778;51.142;3.732;2022-08-19T01:16:19;47.53;;;30.65;;
59922;SDS011;45778;51.142;3.732;2022-08-19T01:18:48;45.53;;;31.42;;
59922;SDS011;45778;51.142;3.732;2022-08-19T01:21:22;46.13;;;32.00;;
59922;SDS011;45778;51.142;3.732;2022-08-19T01:23:56;43.38;;;29.75;;
59922;SDS011;45778;51.142;3.732;2022-08-19T01:26:22;45.88;;;30.67;;
59922;SDS011;45778;51.142;3.732;2022-08-19T01:28:51;46.47;;;32.22;;
59922;SDS011;45778;51.142;3.732;2022-08-19T01:31:20;48.53;;;31.90;;
59922;SDS011;45778;51.142;3.732;2022-08-19T01:33:49;48.70;;;31.90;;
59922;SDS011;45778;51.142;3.732;2022-08-19T01:36:38;46.50;;;31.65;;
59922;SDS011;45778;51.142;3.732;2022-08-19T01:39:11;48.75;;;33.90;;
59922;SDS011;45778;51.142;3.732;2022-08-19T01:41:39;52.42;;;32.30;;
59922;SDS011;45778;51.142;3.732;2022-08-19T01:44:05;50.33;;;32.85;;
59922;SDS011;45778;51.142;3.732;2022-08-19T01:46:33;52.45;;;32.58;;
59922;SDS011;45778;51.142;3.732;2022-08-19T01:49:00;54.03;;;32.33;;
59922;SDS011;45778;51.142;3.732;2022-08-19T01:51:26;53.67;;;33.47;;
59922;SDS011;45778;51.142;3.732;2022-08-19T01:53:53;55.92;;;35.17;;
59922;SDS011;45778;51.142;3.732;2022-08-19T01:56:19;53.65;;;33.42;;
59922;SDS011;45778;51.142;3.732;2022-08-19T01:58:47;50.03;;;32.50;;
59922;SDS011;45778;51.142;3.732;2022-08-19T02:01:16;55.15;;;32.03;;
59922;SDS011;45778;51.142;3.732;2022-08-19T02:03:42;54.95;;;33.75;;
59922;SDS011;45778;51.142;3.732;2022-08-19T02:06:08;51.58;;;32.33;;
59922;SDS011;45778;51.142;3.732;2022-08-19T02:08:35;51.72;;;33.88;;
59922;SDS011;45778;51.142;3.732;2022-08-19T02:11:03;50.60;;;31.67;;
59922;SDS011;45778;51.142;3.732;2022-08-19T02:13:30;49.92;;;32.45;;
59922;SDS011;45778;51.142;3.732;2022-08-19T02:15:56;57.35;;;34.88;;
59922;SDS011;45778;51.142;3.732;2022-08-19T02:18:22;58.70;;;32.85;;
59922;SDS011;45778;51.142;3.732;2022-08-19T02:20:48;47.10;;;31.02;;
59922;SDS011;45778;51.142;3.732;2022-08-19T02:23:14;46.58;;;30.92;;
59922;SDS011;45778;51.142;3.732;2022-08-19T02:25:42;48.33;;;31.60;;
59922;SDS011;45778;51.142;3.732;2022-08-19T02:28:10;43.95;;;30.42;;
59922;SDS011;45778;51.142;3.732;2022-08-19T02:30:36;55.05;;;30.40;;
59922;SDS011;45778;51.142;3.732;2022-08-19T02:33:03;52.75;;;30.85;;
59922;SDS011;45778;51.142;3.732;2022-08-19T02:35:29;46.53;;;29.90;;
59922;SDS011;45778;51.142;3.732;2022-08-19T02:37:55;45.92;;;29.90;;
59922;SDS011;45778;51.142;3.732;2022-08-19T02:40:40;49.45;;;31.02;;
59922;SDS011;45778;51.142;3.732;2022-08-19T02:43:06;47.78;;;30.02;;
59922;SDS011;45778;51.142;3.732;2022-08-19T02:45:37;43.50;;;29.40;;
59922;SDS011;45778;51.142;3.732;2022-08-19T02:48:04;43.13;;;26.52;;
59922;SDS011;45778;51.142;3.732;2022-08-19T02:50:30;41.15;;;27.55;;
59922;SDS011;45778;51.142;3.732;2022-08-19T02:52:56;42.70;;;27.00;;
59922;SDS011;45778;51.142;3.732;2022-08-19T02:55:22;42.60;;;26.30;;
59922;SDS011;45778;51.142;3.732;2022-08-19T02:57:48;46.92;;;25.23;;
59922;SDS011;45778;51.142;3.732;2022-08-19T03:00:14;41.15;;;26.15;;
59922;SDS011;45778;51.142;3.732;2022-08-19T03:02:40;43.70;;;25.98;;
59922;SDS011;45778;51.142;3.732;2022-08-19T03:05:07;41.33;;;24.83;;
59922;SDS011;45778;51.142;3.732;2022-08-19T03:07:34;37.85;;;23.75;;
59922;SDS011;45778;51.142;3.732;2022-08-19T03:10:01;37.35;;;25.00;;
59922;SDS011;45778;51.142;3.732;2022-08-19T03:12:27;36.92;;;23.05;;
59922;SDS011;45778;51.142;3.732;2022-08-19T03:14:52;36.40;;;22.35;;
59922;SDS011;45778;51.142;3.732;2022-08-19T03:17:18;35.70;;;22.17;;
59922;SDS011;45778;51.142;3.732;2022-08-19T03:19:44;32.75;;;21.10;;
59922;SDS011;45778;51.142;3.732;2022-08-19T03:22:10;30.70;;;20.42;;
59922;SDS011;45778;51.142;3.732;2022-08-19T03:24:36;31.98;;;20.13;;
59922;SDS011;45778;51.142;3.732;2022-08-19T03:27:02;33.70;;;21.27;;
59922;SDS011;45778;51.142;3.732;2022-08-19T03:29:30;37.50;;;22.52;;
59922;SDS011;45778;51.142;3.732;2022-08-19T03:32:00;32.00;;;21.10;;
59922;SDS011;45778;51.142;3.732;2022-08-19T03:34:29;41.60;;;22.15;;
59922;SDS011;45778;51.142;3.732;2022-08-19T03:36:58;38.75;;;21.92;;
59922;SDS011;45778;51.142;3.732;2022-08-19T03:39:28;32.58;;;22.83;;
59922;SDS011;45778;51.142;3.732;2022-08-19T03:41:54;35.15;;;22.70;;
59922;SDS011;45778;51.142;3.732;2022-08-19T03:44:24;35.10;;;21.42;;
59922;SDS011;45778;51.142;3.732;2022-08-19T03:46:54;36.10;;;20.15;;
59922;SDS011;45778;51.142;3.732;2022-08-19T03:49:23;35.72;;;21.40;;
59922;SDS011;45778;51.142;3.732;2022-08-19T03:51:51;46.25;;;23.45;;
59922;SDS011;45778;51.142;3.732;2022-08-19T03:54:19;33.13;;;19.88;;
59922;SDS011;45778;51.142;3.732;2022-08-19T03:56:48;41.17;;;24.77;;
59922;SDS011;45778;51.142;3.732;2022-08-19T03:59:20;32.78;;;21.55;;
59922;SDS011;45778;51.142;3.732;2022-08-19T04:01:55;39.20;;;23.08;;
59922;SDS011;45778;51.142;3.732;2022-08-19T04:04:23;39.30;;;21.50;;
59922;SDS011;45778;51.142;3.732;2022-08-19T04:06:49;46.00;;;25.02;;
59922;SDS011;45778;51.142;3.732;2022-08-19T04:09:16;38.70;;;23.05;;
59922;SDS011;45778;51.142;3.732;2022-08-19T04:11:45;36.78;;;22.45;;
59922;SDS011;45778;51.142;3.732;2022-08-19T04:14:13;41.50;;;23.67;;
59922;SDS011;45778;51.142;3.732;2022-08-19T04:16:43;42.72;;;23.15;;
59922;SDS011;45778;51.142;3.732;2022-08-19T04:19:10;40.30;;;24.90;;
59922;SDS011;45778;51.142;3.732;2022-08-19T04:21:37;41.28;;;21.63;;
59922;SDS011;45778;51.142;3.732;2022-08-19T04:24:03;38.00;;;22.92;;
59922;SDS011;45778;51.142;3.732;2022-08-19T04:26:30;40.92;;;21.33;;
59922;SDS011;45778;51.142;3.732;2022-08-19T04:28:58;38.38;;;20.95;;
59922;SDS011;45778;51.142;3.732;2022-08-19T04:31:27;34.17;;;20.95;;
59922;SDS011;45778;51.142;3.732;2022-08-19T04:33:59;38.30;;;22.88;;
59922;SDS011;45778;51.142;3.732;2022-08-19T04:36:27;42.75;;;22.55;;
59922;SDS011;45778;51.142;3.732;2022-08-19T04:38:57;35.25;;;22.00;;
59922;SDS011;45778;51.142;3.732;2022-08-19T04:41:25;40.38;;;23.20;;
59922;SDS011;45778;51.142;3.732;2022-08-19T04:44:10;34.45;;;22.38;;
59922;SDS011;45778;51.142;3.732;2022-08-19T04:46:36;38.90;;;21.65;;
59922;SDS011;45778;51.142;3.732;2022-08-19T04:49:03;37.38;;;21.42;;
59922;SDS011;45778;51.142;3.732;2022-08-19T04:51:30;35.45;;;22.55;;
59922;SDS011;45778;51.142;3.732;2022-08-19T04:53:57;36.25;;;22.33;;
59922;SDS011;45778;51.142;3.732;2022-08-19T04:56:24;36.75;;;19.33;;
59922;SDS011;45778;51.142;3.732;2022-08-19T04:58:51;37.60;;;21.42;;
59922;SDS011;45778;51.142;3.732;2022-08-19T05:01:25;38.30;;;20.65;;
59922;SDS011;45778;51.142;3.732;2022-08-19T05:03:56;33.13;;;19.85;;
59922;SDS011;45778;51.142;3.732;2022-08-19T05:06:22;34.45;;;19.55;;
59922;SDS011;45778;51.142;3.732;2022-08-19T05:08:49;32.97;;;19.75;;
59922;SDS011;45778;51.142;3.732;2022-08-19T05:13:40;27.20;;;18.23;;
59922;SDS011;45778;51.142;3.732;2022-08-19T05:16:08;29.63;;;18.17;;
59922;SDS011;45778;51.142;3.732;2022-08-19T05:18:35;30.45;;;18.33;;
59922;SDS011;45778;51.142;3.732;2022-08-19T05:21:20;28.33;;;17.73;;
59922;SDS011;45778;51.142;3.732;2022-08-19T05:24:05;33.38;;;17.52;;
59922;SDS011;45778;51.142;3.732;2022-08-19T05:26:35;28.35;;;18.40;;
59922;SDS011;45778;51.142;3.732;2022-08-19T05:29:01;25.58;;;17.10;;
59922;SDS011;45778;51.142;3.732;2022-08-19T05:31:28;27.38;;;16.80;;
59922;SDS011;45778;51.142;3.732;2022-08-19T05:33:54;29.88;;;17.52;;
59922;SDS011;45778;51.142;3.732;2022-08-19T05:36:20;29.08;;;15.90;;
59922;SDS011;45778;51.142;3.732;2022-08-19T05:38:46;29.48;;;15.80;;
59922;SDS011;45778;51.142;3.732;2022-08-19T05:41:13;28.20;;;15.52;;
59922;SDS011;45778;51.142;3.732;2022-08-19T05:43:40;25.67;;;16.98;;
59922;SDS011;45778;51.142;3.732;2022-08-19T05:46:06;26.73;;;15.05;;
59922;SDS011;45778;51.142;3.732;2022-08-19T05:48:33;32.85;;;18.10;;
59922;SDS011;45778;51.142;3.732;2022-08-19T05:51:03;27.50;;;15.32;;
59922;SDS011;45778;51.142;3.732;2022-08-19T05:53:33;32.67;;;16.17;;
59922;SDS011;45778;51.142;3.732;2022-08-19T05:56:03;28.30;;;17.15;;
59922;SDS011;45778;51.142;3.732;2022-08-19T05:58:30;26.48;;;16.50;;
59922;SDS011;45778;51.142;3.732;2022-08-19T06:00:57;29.20;;;17.08;;
59922;SDS011;45778;51.142;3.732;2022-08-19T06:03:23;29.73;;;16.90;;
59922;SDS011;45778;51.142;3.732;2022-08-19T06:05:49;28.40;;;16.67;;
59922;SDS011;45778;51.142;3.732;2022-08-19T06:08:14;24.63;;;16.20;;
59922;SDS011;45778;51.142;3.732;2022-08-19T06:10:43;29.35;;;16.42;;
59922;SDS011;45778;51.142;3.732;2022-08-19T06:13:08;24.73;;;15.25;;
59922;SDS011;45778;51.142;3.732;2022-08-19T06:15:34;23.58;;;14.48;;
59922;SDS011;45778;51.142;3.732;2022-08-19T06:18:00;28.92;;;15.32;;
59922;SDS011;45778;51.142;3.732;2022-08-19T06:20:26;25.38;;;15.70;;
59922;SDS011;45778;51.142;3.732;2022-08-19T06:22:51;31.95;;;17.20;;
59922;SDS011;45778;51.142;3.732;2022-08-19T06:25:17;31.30;;;17.65;;
59922;SDS011;45778;51.142;3.732;2022-08-19T06:27:43;27.60;;;16.30;;
59922;SDS011;45778;51.142;3.732;2022-08-19T06:30:09;26.52;;;16.27;;
59922;SDS011;45778;51.142;3.732;2022-08-19T06:32:37;26.88;;;15.70;;
59922;SDS011;45778;51.142;3.732;2022-08-19T06:35:03;28.08;;;15.13;;
59922;SDS011;45778;51.142;3.732;2022-08-19T06:37:29;30.73;;;16.05;;
59922;SDS011;45778;51.142;3.732;2022-08-19T06:39:55;22.25;;;15.60;;
59922;SDS011;45778;51.142;3.732;2022-08-19T06:42:21;30.00;;;15.68;;
59922;SDS011;45778;51.142;3.732;2022-08-19T06:44:47;26.85;;;15.35;;
59922;SDS011;45778;51.142;3.732;2022-08-19T06:47:14;34.30;;;16.83;;
59922;SDS011;45778;51.142;3.732;2022-08-19T06:49:42;24.98;;;16.88;;
59922;SDS011;45778;51.142;3.732;2022-08-19T06:52:07;23.75;;;16.35;;
59922;SDS011;45778;51.142;3.732;2022-08-19T06:54:33;29.42;;;16.90;;
59922;SDS011;45778;51.142;3.732;2022-08-19T06:57:01;26.30;;;17.00;;
59922;SDS011;45778;51.142;3.732;2022-08-19T06:59:27;27.58;;;16.75;;
59922;SDS011;45778;51.142;3.732;2022-08-19T07:01:57;24.33;;;17.30;;
59922;SDS011;45778;51.142;3.732;2022-08-19T07:04:29;26.90;;;15.85;;
59922;SDS011;45778;51.142;3.732;2022-08-19T07:07:03;26.65;;;17.90;;
59922;SDS011;45778;51.142;3.732;2022-08-19T07:09:33;25.75;;;18.38;;
59922;SDS011;45778;51.142;3.732;2022-08-19T07:11:59;26.05;;;17.25;;
59922;SDS011;45778;51.142;3.732;2022-08-19T07:14:26;27.73;;;19.10;;
59922;SDS011;45778;51.142;3.732;2022-08-19T07:16:53;30.45;;;19.55;;
59922;SDS011;45778;51.142;3.732;2022-08-19T07:19:21;25.52;;;19.17;;
59922;SDS011;45778;51.142;3.732;2022-08-19T07:21:49;25.70;;;18.92;;
59922;SDS011;45778;51.142;3.732;2022-08-19T07:24:17;25.67;;;18.08;;
59922;SDS011;45778;51.142;3.732;2022-08-19T07:26:45;26.63;;;19.13;;
59922;SDS011;45778;51.142;3.732;2022-08-19T07:29:11;26.95;;;18.55;;
59922;SDS011;45778;51.142;3.732;2022-08-19T07:31:38;24.17;;;18.50;;
59922;SDS011;45778;51.142;3.732;2022-08-19T07:34:05;25.92;;;19.40;;
59922;SDS011;45778;51.142;3.732;2022-08-19T07:36:33;24.90;;;18.55;;
59922;SDS011;45778;51.142;3.732;2022-08-19T07:39:07;25.40;;;17.58;;
59922;SDS011;45778;51.142;3.732;2022-08-19T07:41:41;26.10;;;19.17;;
59922;SDS011;45778;51.142;3.732;2022-08-19T07:44:08;26.52;;;20.02;;
59922;SDS011;45778;51.142;3.732;2022-08-19T07:46:35;24.35;;;19.17;;
59922;SDS011;45778;51.142;3.732;2022-08-19T07:49:03;25.90;;;19.10;;
59922;SDS011;45778;51.142;3.732;2022-08-19T07:51:30;26.42;;;18.85;;
59922;SDS011;45778;51.142;3.732;2022-08-19T07:53:56;26.35;;;19.73;;
59922;SDS011;45778;51.142;3.732;2022-08-19T07:56:22;27.92;;;18.33;;
59922;SDS011;45778;51.142;3.732;2022-08-19T07:58:49;23.77;;;17.45;;
59922;SDS011;45778;51.142;3.732;2022-08-19T08:01:17;29.88;;;16.88;;
59922;SDS011;45778;51.142;3.732;2022-08-19T08:03:48;29.55;;;17.92;;
59922;SDS011;45778;51.142;3.732;2022-08-19T08:06:33;21.95;;;15.77;;
59922;SDS011;45778;51.142;3.732;2022-08-19T08:09:19;28.05;;;17.08;;
59922;SDS011;45778;51.142;3.732;2022-08-19T08:11:52;24.88;;;17.58;;
59922;SDS011;45778;51.142;3.732;2022-08-19T08:14:22;28.13;;;15.95;;
59922;SDS011;45778;51.142;3.732;2022-08-19T08:16:53;24.65;;;15.93;;
59922;SDS011;45778;51.142;3.732;2022-08-19T08:19:19;24.60;;;16.02;;
59922;SDS011;45778;51.142;3.732;2022-08-19T08:21:47;21.38;;;14.30;;
59922;SDS011;45778;51.142;3.732;2022-08-19T08:24:14;21.13;;;12.73;;
59922;SDS011;45778;51.142;3.732;2022-08-19T08:26:41;20.48;;;12.30;;
59922;SDS011;45778;51.142;3.732;2022-08-19T08:29:08;21.88;;;13.52;;
59922;SDS011;45778;51.142;3.732;2022-08-19T08:31:42;17.55;;;11.20;;
59922;SDS011;45778;51.142;3.732;2022-08-19T08:34:09;20.67;;;12.07;;
59922;SDS011;45778;51.142;3.732;2022-08-19T08:36:39;18.40;;;11.50;;
59922;SDS011;45778;51.142;3.732;2022-08-19T08:39:10;18.70;;;10.40;;
59922;SDS011;45778;51.142;3.732;2022-08-19T08:44:05;19.15;;;9.77;;
59922;SDS011;45778;51.142;3.732;2022-08-19T08:49:20;19.80;;;9.27;;
59922;SDS011;45778;51.142;3.732;2022-08-19T08:54:50;15.07;;;8.88;;
59922;SDS011;45778;51.142;3.732;2022-08-19T08:57:27;11.10;;;7.72;;
59922;SDS011;45778;51.142;3.732;2022-08-19T09:00:15;16.77;;;8.70;;
59922;SDS011;45778;51.142;3.732;2022-08-19T09:02:55;14.63;;;10.25;;
59922;SDS011;45778;51.142;3.732;2022-08-19T09:05:22;14.75;;;8.57;;
59922;SDS011;45778;51.142;3.732;2022-08-19T09:10:32;13.77;;;9.48;;
59922;SDS011;45778;51.142;3.732;2022-08-19T09:15:52;14.15;;;9.32;;
59922;SDS011;45778;51.142;3.732;2022-08-19T09:18:29;16.27;;;8.57;;
59922;SDS011;45778;51.142;3.732;2022-08-19T09:21:17;14.55;;;7.60;;
59922;SDS011;45778;51.142;3.732;2022-08-19T09:23:42;12.25;;;6.85;;
59922;SDS011;45778;51.142;3.732;2022-08-19T09:26:09;11.25;;;6.78;;
59922;SDS011;45778;51.142;3.732;2022-08-19T09:28:38;9.90;;;6.78;;
59922;SDS011;45778;51.142;3.732;2022-08-19T09:31:08;8.13;;;6.60;;
59922;SDS011;45778;51.142;3.732;2022-08-19T09:33:35;8.85;;;6.15;;
59922;SDS011;45778;51.142;3.732;2022-08-19T09:36:01;9.63;;;7.85;;
59922;SDS011;45778;51.142;3.732;2022-08-19T09:38:28;11.43;;;8.18;;
59922;SDS011;45778;51.142;3.732;2022-08-19T09:40:54;12.73;;;9.52;;
59922;SDS011;45778;51.142;3.732;2022-08-19T09:43:19;14.27;;;10.43;;
59922;SDS011;45778;51.142;3.732;2022-08-19T09:45:45;15.20;;;10.55;;
59922;SDS011;45778;51.142;3.732;2022-08-19T09:48:10;17.35;;;12.35;;
59922;SDS011;45778;51.142;3.732;2022-08-19T09:50:36;15.40;;;11.35;;
59922;SDS011;45778;51.142;3.732;2022-08-19T09:53:03;13.95;;;10.35;;
59922;SDS011;45778;51.142;3.732;2022-08-19T09:55:31;12.07;;;9.15;;
59922;SDS011;45778;51.142;3.732;2022-08-19T09:57:56;8.82;;;7.88;;
59922;SDS011;45778;51.142;3.732;2022-08-19T10:00:22;6.55;;;5.78;;
59922;SDS011;45778;51.142;3.732;2022-08-19T10:02:48;7.25;;;6.55;;
59922;SDS011;45778;51.142;3.732;2022-08-19T10:05:13;7.35;;;6.25;;
59922;SDS011;45778;51.142;3.732;2022-08-19T10:07:57;10.15;;;6.55;;
59922;SDS011;45778;51.142;3.732;2022-08-19T10:10:26;10.77;;;8.35;;
59922;SDS011;45778;51.142;3.732;2022-08-19T10:12:51;10.05;;;7.95;;
59922;SDS011;45778;51.142;3.732;2022-08-19T10:15:17;8.15;;;6.72;;
59922;SDS011;45778;51.142;3.732;2022-08-19T10:17:45;8.45;;;6.38;;
59922;SDS011;45778;51.142;3.732;2022-08-19T10:20:11;7.15;;;4.63;;
59922;SDS011;45778;51.142;3.732;2022-08-19T10:22:37;4.63;;;3.75;;
59922;SDS011;45778;51.142;3.732;2022-08-19T10:25:03;5.40;;;3.75;;
59922;SDS011;45778;51.142;3.732;2022-08-19T10:27:30;4.63;;;3.42;;
59922;SDS011;45778;51.142;3.732;2022-08-19T10:29:56;4.32;;;2.47;;
59922;SDS011;45778;51.142;3.732;2022-08-19T10:32:22;4.05;;;3.15;;
59922;SDS011;45778;51.142;3.732;2022-08-19T10:34:48;3.92;;;2.30;;
59922;SDS011;45778;51.142;3.732;2022-08-19T10:37:15;5.18;;;3.47;;
59922;SDS011;45778;51.142;3.732;2022-08-19T10:39:42;5.75;;;2.80;;
59922;SDS011;45778;51.142;3.732;2022-08-19T10:42:12;3.58;;;2.30;;
59922;SDS011;45778;51.142;3.732;2022-08-19T10:44:38;3.78;;;2.42;;
59922;SDS011;45778;51.142;3.732;2022-08-19T10:47:04;3.08;;;2.30;;
59922;SDS011;45778;51.142;3.732;2022-08-19T10:49:30;2.53;;;1.60;;
59922;SDS011;45778;51.142;3.732;2022-08-19T10:51:57;2.78;;;1.77;;
59922;SDS011;45778;51.142;3.732;2022-08-19T10:54:41;3.20;;;2.30;;
59922;SDS011;45778;51.142;3.732;2022-08-19T10:57:25;4.00;;;2.30;;
59922;SDS011;45778;51.142;3.732;2022-08-19T10:59:56;3.35;;;2.25;;
59922;SDS011;45778;51.142;3.732;2022-08-19T11:02:22;2.45;;;2.03;;
59922;SDS011;45778;51.142;3.732;2022-08-19T11:04:48;2.70;;;1.52;;
59922;SDS011;45778;51.142;3.732;2022-08-19T11:07:15;3.15;;;2.05;;
59922;SDS011;45778;51.142;3.732;2022-08-19T11:09:41;3.75;;;1.88;;
59922;SDS011;45778;51.142;3.732;2022-08-19T11:12:08;3.78;;;2.00;;
59922;SDS011;45778;51.142;3.732;2022-08-19T11:14:35;2.60;;;1.58;;
59922;SDS011;45778;51.142;3.732;2022-08-19T11:17:02;3.97;;;1.70;;
59922;SDS011;45778;51.142;3.732;2022-08-19T11:19:29;4.80;;;2.00;;
59922;SDS011;45778;51.142;3.732;2022-08-19T11:21:54;3.45;;;1.48;;
59922;SDS011;45778;51.142;3.732;2022-08-19T11:24:21;2.28;;;1.70;;
59922;SDS011;45778;51.142;3.732;2022-08-19T11:26:49;3.65;;;1.92;;
59922;SDS011;45778;51.142;3.732;2022-08-19T11:29:18;6.00;;;1.75;;
59922;SDS011;45778;51.142;3.732;2022-08-19T11:31:46;4.95;;;1.80;;
59922;SDS011;45778;51.142;3.732;2022-08-19T11:34:19;2.72;;;1.15;;
59922;SDS011;45778;51.142;3.732;2022-08-19T11:36:46;2.22;;;1.23;;
59922;SDS011;45778;51.142;3.732;2022-08-19T11:39:13;1.70;;;1.10;;
59922;SDS011;45778;51.142;3.732;2022-08-19T11:41:41;4.72;;;1.60;;
59922;SDS011;45778;51.142;3.732;2022-08-19T11:44:06;2.33;;;1.45;;
59922;SDS011;45778;51.142;3.732;2022-08-19T11:46:33;3.28;;;1.60;;
59922;SDS011;45778;51.142;3.732;2022-08-19T11:49:00;7.38;;;2.38;;
59922;SDS011;45778;51.142;3.732;2022-08-19T11:51:27;3.58;;;1.80;;
59922;SDS011;45778;51.142;3.732;2022-08-19T11:53:54;6.65;;;2.38;;
59922;SDS011;45778;51.142;3.732;2022-08-19T11:56:21;2.28;;;1.67;;
59922;SDS011;45778;51.142;3.732;2022-08-19T11:58:48;3.70;;;1.95;;
59922;SDS011;45778;51.142;3.732;2022-08-19T12:01:15;4.13;;;2.22;;
59922;SDS011;45778;51.142;3.732;2022-08-19T12:03:44;4.20;;;1.70;;
59922;SDS011;45778;51.142;3.732;2022-08-19T12:06:12;3.38;;;2.05;;
59922;SDS011;45778;51.142;3.732;2022-08-19T12:08:40;5.55;;;1.80;;
59922;SDS011;45778;51.142;3.732;2022-08-19T12:11:07;3.35;;;2.63;;
59922;SDS011;45778;51.142;3.732;2022-08-19T12:13:33;6.50;;;2.72;;
59922;SDS011;45778;51.142;3.732;2022-08-19T12:16:00;4.75;;;2.45;;
59922;SDS011;45778;51.142;3.732;2022-08-19T12:18:31;5.72;;;2.85;;
59922;SDS011;45778;51.142;3.732;2022-08-19T12:20:57;3.90;;;2.28;;
59922;SDS011;45778;51.142;3.732;2022-08-19T12:23:25;3.40;;;2.40;;
59922;SDS011;45778;51.142;3.732;2022-08-19T12:25:51;3.67;;;3.30;;
59922;SDS011;45778;51.142;3.732;2022-08-19T12:28:18;4.30;;;2.88;;
59922;SDS011;45778;51.142;3.732;2022-08-19T12:30:45;3.08;;;2.22;;
59922;SDS011;45778;51.142;3.732;2022-08-19T12:33:11;3.15;;;2.33;;
59922;SDS011;45778;51.142;3.732;2022-08-19T12:35:42;7.22;;;2.65;;
59922;SDS011;45778;51.142;3.732;2022-08-19T12:38:09;3.25;;;2.60;;
59922;SDS011;45778;51.142;3.732;2022-08-19T12:40:35;3.95;;;2.42;;
59922;SDS011;45778;51.142;3.732;2022-08-19T12:43:01;5.97;;;2.60;;
59922;SDS011;45778;51.142;3.732;2022-08-19T12:45:27;2.95;;;2.28;;
59922;SDS011;45778;51.142;3.732;2022-08-19T12:47:53;1.77;;;1.60;;
59922;SDS011;45778;51.142;3.732;2022-08-19T12:50:19;3.83;;;1.77;;
59922;SDS011;45778;51.142;3.732;2022-08-19T12:52:46;4.25;;;1.50;;
59922;SDS011;45778;51.142;3.732;2022-08-19T12:55:13;1.85;;;1.30;;
59922;SDS011;45778;51.142;3.732;2022-08-19T12:57:39;4.35;;;1.77;;
59922;SDS011;45778;51.142;3.732;2022-08-19T13:00:09;1.10;;;0.88;;
59922;SDS011;45778;51.142;3.732;2022-08-19T13:02:39;1.15;;;0.93;;
59922;SDS011;45778;51.142;3.732;2022-08-19T13:05:07;2.33;;;1.20;;
59922;SDS011;45778;51.142;3.732;2022-08-19T13:07:37;3.58;;;1.45;;
59922;SDS011;45778;51.142;3.732;2022-08-19T13:10:04;4.22;;;1.58;;
59922;SDS011;45778;51.142;3.732;2022-08-19T13:12:34;2.38;;;1.35;;
59922;SDS011;45778;51.142;3.732;2022-08-19T13:15:00;4.70;;;1.67;;
59922;SDS011;45778;51.142;3.732;2022-08-19T13:17:26;21.38;;;4.03;;
59922;SDS011;45778;51.142;3.732;2022-08-19T13:19:52;5.03;;;1.70;;
59922;SDS011;45778;51.142;3.732;2022-08-19T13:22:17;2.55;;;1.42;;
59922;SDS011;45778;51.142;3.732;2022-08-19T13:24:43;5.10;;;1.58;;
59922;SDS011;45778;51.142;3.732;2022-08-19T13:27:09;4.20;;;1.48;;
59922;SDS011;45778;51.142;3.732;2022-08-19T13:29:34;13.55;;;1.60;;
59922;SDS011;45778;51.142;3.732;2022-08-19T13:32:18;5.05;;;1.50;;
59922;SDS011;45778;51.142;3.732;2022-08-19T13:35:03;4.53;;;1.83;;
59922;SDS011;45778;51.142;3.732;2022-08-19T13:37:29;5.45;;;1.90;;
59922;SDS011;45778;51.142;3.732;2022-08-19T13:40:08;4.60;;;2.30;;
59922;SDS011;45778;51.142;3.732;2022-08-19T13:45:12;7.43;;;1.80;;
59922;SDS011;45778;51.142;3.732;2022-08-19T13:47:40;2.28;;;1.70;;
59922;SDS011;45778;51.142;3.732;2022-08-19T13:50:09;2.45;;;1.90;;
59922;SDS011;45778;51.142;3.732;2022-08-19T13:52:37;5.00;;;2.35;;
59922;SDS011;45778;51.142;3.732;2022-08-19T13:55:04;3.20;;;1.98;;
59922;SDS011;45778;51.142;3.732;2022-08-19T13:57:30;4.18;;;2.17;;
59922;SDS011;45778;51.142;3.732;2022-08-19T13:59:57;3.42;;;1.33;;
59922;SDS011;45778;51.142;3.732;2022-08-19T14:02:23;6.90;;;1.75;;
59922;SDS011;45778;51.142;3.732;2022-08-19T14:04:49;5.13;;;2.08;;
59922;SDS011;45778;51.142;3.732;2022-08-19T14:07:15;2.35;;;1.75;;
59922;SDS011;45778;51.142;3.732;2022-08-19T14:09:41;2.25;;;2.05;;
59922;SDS011;45778;51.142;3.732;2022-08-19T14:12:07;3.13;;;1.92;;
59922;SDS011;45778;51.142;3.732;2022-08-19T14:14:36;3.38;;;1.90;;
59922;SDS011;45778;51.142;3.732;2022-08-19T14:17:05;2.35;;;1.77;;
59922;SDS011;45778;51.142;3.732;2022-08-19T14:19:32;5.03;;;2.00;;
59922;SDS011;45778;51.142;3.732;2022-08-19T14:21:58;2.65;;;2.08;;
59922;SDS011;45778;51.142;3.732;2022-08-19T14:24:23;4.53;;;2.53;;
59922;SDS011;45778;51.142;3.732;2022-08-19T14:26:49;3.42;;;2.50;;
59922;SDS011;45778;51.142;3.732;2022-08-19T14:29:15;4.00;;;2.50;;
59922;SDS011;45778;51.142;3.732;2022-08-19T14:31:41;4.28;;;2.70;;
59922;SDS011;45778;51.142;3.732;2022-08-19T14:34:09;3.90;;;3.08;;
59922;SDS011;45778;51.142;3.732;2022-08-19T14:36:35;4.65;;;3.10;;
59922;SDS011;45778;51.142;3.732;2022-08-19T14:39:02;3.33;;;2.83;;
59922;SDS011;45778;51.142;3.732;2022-08-19T14:41:29;5.78;;;2.90;;
59922;SDS011;45778;51.142;3.732;2022-08-19T14:43:55;4.03;;;2.83;;
59922;SDS011;45778;51.142;3.732;2022-08-19T14:46:23;4.70;;;2.92;;
59922;SDS011;45778;51.142;3.732;2022-08-19T14:48:50;6.45;;;4.32;;
59922;SDS011;45778;51.142;3.732;2022-08-19T14:51:16;4.68;;;3.50;;
59922;SDS011;45778;51.142;3.732;2022-08-19T14:53:43;4.85;;;2.90;;
59922;SDS011;45778;51.142;3.732;2022-08-19T14:56:09;5.32;;;3.00;;